Time;durP1;ratioP1;P1;durP2;ratioP2;P2;SDS_P1;SDS_P2;PMS_P1;PMS_P2;Temp;Humidity;BMP_temperature;BMP_pressure;BME280_temperature;BME280_humidity;BME280_pressure;Samples;Min_cycle;Max_cycle;Signal;HPM_P1;HPM_P2
2022/03/17 00:00:03;;;;;;;41.30;27.37;;;;;;;4.08;100.00;95898.25;5120432;28;20193;-44
2022/03/17 00:02:28;;;;;;;46.07;28.00;;;;;;;4.31;100.00;95901.13;5120097;28;20230;-46
2022/03/17 00:04:54;;;;;;;41.07;27.63;;;;;;;4.22;100.00;95892.44;5120164;28;20187;-43
2022/03/17 00:07:19;;;;;;;42.53;26.87;;;;;;;4.19;100.00;95893.13;5119935;28;20191;-43
2022/03/17 00:09:45;;;;;;;39.27;26.47;;;;;;;4.18;100.00;95896.97;5119787;28;20183;-42
2022/03/17 00:12:10;;;;;;;40.87;26.70;;;;;;;4.16;100.00;95907.34;5119621;28;20234;-44
2022/03/17 00:14:36;;;;;;;39.57;26.80;;;;;;;4.17;100.00;95900.78;5119910;28;20213;-57
2022/03/17 00:17:02;;;;;;;41.10;26.87;;;;;;;4.14;100.00;95899.59;5119483;28;20186;-59
2022/03/17 00:19:27;;;;;;;40.00;27.00;;;;;;;4.11;100.00;95907.63;5120162;28;20245;-44
2022/03/17 00:21:53;;;;;;;43.97;28.00;;;;;;;4.09;100.00;95907.16;5120122;28;20640;-44
2022/03/17 00:24:18;;;;;;;42.57;26.93;;;;;;;4.07;100.00;95901.34;5119215;28;20236;-45
2022/03/17 00:26:44;;;;;;;42.60;26.80;;;;;;;4.06;100.00;95899.75;5120112;28;20187;-44
2022/03/17 00:29:09;;;;;;;39.27;26.57;;;;;;;4.05;100.00;95898.19;5119405;28;20183;-45
2022/03/17 00:31:39;;;;;;;44.47;27.67;;;;;;;4.04;100.00;95897.41;5119577;28;20241;-45
2022/03/17 00:34:09;;;;;;;43.70;27.57;;;;;;;4.00;100.00;95903.88;5136484;28;20183;-58
2022/03/17 00:36:35;;;;;;;43.17;27.00;;;;;;;3.99;100.00;95899.56;5119140;28;20187;-57
2022/03/17 00:39:01;;;;;;;42.03;27.40;;;;;;;3.97;100.00;95896.44;5136724;28;20228;-58
2022/03/17 00:41:27;;;;;;;42.40;27.87;;;;;;;3.95;100.00;95904.91;5119082;28;20191;-55
2022/03/17 00:43:52;;;;;;;42.90;26.47;;;;;;;3.91;100.00;95897.84;5119315;28;20194;-57
2022/03/17 00:46:17;;;;;;;41.90;26.43;;;;;;;3.91;100.00;95897.84;5119495;28;20236;-55
2022/03/17 00:48:43;;;;;;;41.73;28.00;;;;;;;3.90;100.00;95898.97;5119434;28;20247;-57
2022/03/17 00:51:08;;;;;;;40.67;27.83;;;;;;;3.90;100.00;95893.56;5119153;28;20206;-59
2022/03/17 00:53:33;;;;;;;41.27;27.60;;;;;;;3.90;100.00;95885.47;5118966;28;20227;-57
2022/03/17 00:55:59;;;;;;;42.33;28.03;;;;;;;3.90;100.00;95888.16;5119022;28;20183;-63
2022/03/17 00:58:24;;;;;;;43.50;27.87;;;;;;;3.88;100.00;95885.81;5119642;28;20228;-63
2022/03/17 01:00:49;;;;;;;43.03;27.57;;;;;;;3.87;100.00;95886.94;5119427;28;20179;-63
2022/03/17 01:03:15;;;;;;;40.83;27.37;;;;;;;3.85;100.00;95883.81;5118675;28;20612;-63
2022/03/17 01:05:41;;;;;;;40.50;26.57;;;;;;;3.87;100.00;95892.34;5118957;28;20243;-63
2022/03/17 01:08:07;;;;;;;40.93;27.00;;;;;;;3.87;100.00;95881.56;5118226;28;20183;-63
2022/03/17 01:10:33;;;;;;;43.57;26.70;;;;;;;3.88;100.00;95893.13;5118620;28;20216;-44
2022/03/17 01:12:58;;;;;;;40.03;27.33;;;;;;;3.85;100.00;95883.03;5119110;28;20579;-57
2022/03/17 01:15:24;;;;;;;41.90;27.93;;;;;;;3.84;100.00;95879.53;5118764;28;20233;-56
2022/03/17 01:17:49;;;;;;;42.27;26.37;;;;;;;3.88;100.00;95883.13;5119099;28;20179;-56
2022/03/17 01:20:15;;;;;;;40.90;26.87;;;;;;;3.91;100.00;95881.63;5118706;28;20171;-56
2022/03/17 01:22:40;;;;;;;41.10;26.20;;;;;;;3.85;100.00;95875.69;5119113;28;20196;-55
2022/03/17 01:25:08;;;;;;;39.83;25.63;;;;;;;3.86;100.00;95871.09;5119094;28;20537;-55
2022/03/17 01:27:34;;;;;;;41.33;26.33;;;;;;;3.92;100.00;95872.38;5118265;28;20210;-54
2022/03/17 01:30:00;;;;;;;39.37;27.63;;;;;;;3.91;100.00;95876.22;5118517;28;20213;-44
2022/03/17 01:32:25;;;;;;;38.73;25.73;;;;;;;3.90;100.00;95866.56;5118228;28;20199;-59
2022/03/17 01:34:51;;;;;;;40.77;26.10;;;;;;;3.87;100.00;95859.94;5118400;28;20187;-59
2022/03/17 01:37:17;;;;;;;42.37;27.33;;;;;;;3.91;100.00;95854.63;5118912;28;20179;-59
2022/03/17 01:39:42;;;;;;;42.53;26.87;;;;;;;3.87;100.00;95854.53;5118448;28;20331;-58
2022/03/17 01:42:09;;;;;;;41.53;26.43;;;;;;;3.83;100.00;95869.88;5118722;28;20183;-57
2022/03/17 01:44:35;;;;;;;40.07;26.10;;;;;;;3.85;100.00;95866.84;5118238;28;20183;-56
2022/03/17 01:49:46;;;;;;;38.67;25.30;;;;;;;3.84;100.00;95854.44;5137016;28;20193;-58
2022/03/17 01:52:11;;;;;;;40.40;26.23;;;;;;;3.82;100.00;95851.31;5118516;28;20210;-58
2022/03/17 01:54:38;;;;;;;39.30;25.70;;;;;;;3.80;100.00;95848.16;5118538;28;20185;-57
2022/03/17 01:57:05;;;;;;;39.67;25.30;;;;;;;3.78;100.00;95853.16;5118265;28;20198;-58
2022/03/17 01:59:32;;;;;;;39.80;26.10;;;;;;;3.78;100.00;95855.84;5118029;28;20256;-58
2022/03/17 02:01:57;;;;;;;38.77;25.17;;;;;;;3.79;100.00;95857.41;5118137;28;20542;-58
2022/03/17 02:04:23;;;;;;;40.90;26.67;;;;;;;3.80;100.00;95853.56;5118060;28;20220;-58
2022/03/17 02:06:48;;;;;;;37.73;24.93;;;;;;;3.78;100.00;95856.63;5118414;28;20187;-62
2022/03/17 02:09:14;;;;;;;37.23;25.00;;;;;;;3.77;100.00;95844.25;5118113;28;20225;-57
2022/03/17 02:14:25;;;;;;;38.40;25.57;;;;;;;3.74;100.00;95844.94;5136539;28;20197;-57
2022/03/17 02:16:51;;;;;;;36.97;24.93;;;;;;;3.75;100.00;95851.16;5118031;28;20228;-57
2022/03/17 02:19:18;;;;;;;37.73;26.13;;;;;;;3.75;100.00;95845.75;5117424;28;20190;-58
2022/03/17 02:21:44;;;;;;;38.97;25.07;;;;;;;3.79;100.00;95846.63;5117847;28;20636;-57
2022/03/17 02:26:57;;;;;;;37.97;25.30;;;;;;;3.71;100.00;95842.19;5136355;28;20546;-57
2022/03/17 02:29:22;;;;;;;36.80;24.13;;;;;;;3.73;100.00;95834.50;5117631;28;20183;-56
2022/03/17 02:31:47;;;;;;;35.90;23.90;;;;;;;3.72;100.00;95835.63;5117622;28;20209;-56
2022/03/17 02:34:16;;;;;;;39.17;23.43;;;;;;;3.70;100.00;95832.47;5117284;28;20607;-57
2022/03/17 02:36:50;;;;;;;37.57;25.97;;;;;;;3.67;100.00;95825.88;5117563;28;20183;-56
2022/03/17 02:39:17;;;;;;;40.00;25.13;;;;;;;3.68;100.00;95826.66;5117758;28;20186;-56
2022/03/17 02:41:42;;;;;;;38.47;25.63;;;;;;;3.69;100.00;95836.31;5117449;28;20198;-47
2022/03/17 02:44:09;;;;;;;39.67;26.10;;;;;;;3.70;100.00;95845.97;5117928;28;20191;-50
2022/03/17 02:46:34;;;;;;;37.67;24.73;;;;;;;3.65;100.00;95836.25;5134496;28;20193;-51
2022/03/17 02:49:00;;;;;;;34.97;24.73;;;;;;;3.66;100.00;95831.63;5117371;28;20187;-48
2022/03/17 02:51:25;;;;;;;36.87;23.63;;;;;;;3.63;100.00;95832.31;5117266;28;20203;-47
2022/03/17 02:53:51;;;;;;;36.50;24.63;;;;;;;3.60;100.00;95838.41;5116982;28;20187;-45
2022/03/17 02:56:16;;;;;;;36.83;24.93;;;;;;;3.61;100.00;95839.97;5117201;28;20186;-46
2022/03/17 02:58:41;;;;;;;37.43;24.70;;;;;;;3.58;100.00;95839.53;5117106;28;20183;-47
2022/03/17 03:01:07;;;;;;;38.43;24.43;;;;;;;3.66;100.00;95842.41;5117161;28;20210;-57
2022/03/17 03:03:32;;;;;;;39.30;25.27;;;;;;;3.58;100.00;95839.53;5117067;28;20202;-60
2022/03/17 03:05:57;;;;;;;36.43;24.40;;;;;;;3.60;100.00;95850.00;5117567;28;20320;-60
2022/03/17 03:08:24;;;;;;;41.27;25.27;;;;;;;3.58;100.00;95854.16;5116874;28;20214;-60
2022/03/17 03:10:49;;;;;;;36.83;24.73;;;;;;;3.58;100.00;95867.66;5134920;28;20182;-61
2022/03/17 03:13:14;;;;;;;36.60;24.33;;;;;;;3.60;100.00;95871.59;5116718;28;20197;-61
2022/03/17 03:15:40;;;;;;;36.10;24.47;;;;;;;3.61;100.00;95861.56;5117089;28;20291;-60
2022/03/17 03:18:05;;;;;;;38.30;25.77;;;;;;;3.58;100.00;95858.44;5116835;28;20187;-59
2022/03/17 03:20:31;;;;;;;39.40;25.60;;;;;;;3.61;100.00;95850.78;5117227;28;20194;-56
2022/03/17 03:22:57;;;;;;;39.60;25.53;;;;;;;3.57;100.00;95849.91;5116643;28;20183;-57
2022/03/17 03:25:22;;;;;;;37.40;25.33;;;;;;;3.56;100.00;95843.72;5116887;28;20179;-56
2022/03/17 03:27:48;;;;;;;37.93;24.97;;;;;;;3.53;100.00;95850.59;5117465;28;20183;-55
2022/03/17 03:30:14;;;;;;;38.93;25.33;;;;;;;3.56;100.00;95853.75;5115982;28;20179;-56
2022/03/17 03:32:42;;;;;;;36.77;24.87;;;;;;;3.57;100.00;95866.09;5116596;28;20252;-57
2022/03/17 03:37:51;;;;;;;37.50;24.87;;;;;;;3.57;100.00;95860.72;5135316;28;20284;-57
2022/03/17 03:40:17;;;;;;;39.33;24.50;;;;;;;3.58;100.00;95861.13;5116522;28;20278;-48
2022/03/17 03:42:42;;;;;;;36.50;24.50;;;;;;;3.62;100.00;95876.63;5116490;28;20222;-48
2022/03/17 03:45:08;;;;;;;38.33;25.03;;;;;;;3.62;100.00;95884.75;5134893;28;20511;-46
2022/03/17 03:47:33;;;;;;;37.70;23.80;;;;;;;3.63;100.00;95879.00;5116061;28;20179;-46
2022/03/17 03:49:59;;;;;;;37.80;24.47;;;;;;;3.67;100.00;95877.16;5116863;28;20183;-46
2022/03/17 03:52:24;;;;;;;39.47;25.40;;;;;;;3.65;100.00;95867.84;5116127;28;20229;-45
2022/03/17 03:54:49;;;;;;;35.10;24.07;;;;;;;3.66;100.00;95864.81;5116299;28;20183;-60
2022/03/17 03:57:15;;;;;;;37.63;24.77;;;;;;;3.60;100.00;95871.59;5116539;28;20187;-57
2022/03/17 03:59:42;;;;;;;41.03;25.67;;;;;;;3.58;100.00;95873.06;5116608;28;20187;-47
2022/03/17 04:02:09;;;;;;;36.37;24.70;;;;;;;3.53;100.00;95876.03;5116331;28;20683;-53
2022/03/17 04:04:36;;;;;;;40.40;26.23;;;;;;;3.53;100.00;95876.03;5133678;28;20197;-50
2022/03/17 04:07:05;;;;;;;42.17;28.30;;;;;;;3.46;100.00;95872.00;5134298;28;20187;-48
2022/03/17 04:09:38;;;;;;;41.50;26.70;;;;;;;3.42;100.00;95864.94;5116710;28;20187;-48
2022/03/17 04:12:04;;;;;;;40.63;26.30;;;;;;;3.40;100.00;95857.19;5116468;28;20231;-52
2022/03/17 04:14:30;;;;;;;42.00;27.93;;;;;;;3.39;100.00;95855.63;5116347;28;20187;-47
2022/03/17 04:16:56;;;;;;;39.10;25.97;;;;;;;3.36;100.00;95859.00;5116089;28;20559;-62
2022/03/17 04:19:21;;;;;;;39.67;25.83;;;;;;;3.39;100.00;95860.25;5116330;28;20264;-60
2022/03/17 04:21:48;;;;;;;37.57;25.47;;;;;;;3.36;100.00;95861.72;5116108;28;20543;-59
2022/03/17 04:24:14;;;;;;;41.03;27.00;;;;;;;3.31;100.00;95864.66;5116378;28;20194;-61
2022/03/17 04:26:40;;;;;;;37.00;25.60;;;;;;;3.32;100.00;95868.16;5133083;28;20191;-61
2022/03/17 04:29:06;;;;;;;40.57;26.50;;;;;;;3.30;100.00;95865.81;5116223;28;20191;-61
2022/03/17 04:31:33;;;;;;;40.30;26.47;;;;;;;3.30;100.00;95860.41;5116339;28;20247;-44
2022/03/17 04:33:58;;;;;;;41.97;26.23;;;;;;;3.33;100.00;95869.72;5133037;28;20248;-61
2022/03/17 04:36:23;;;;;;;38.70;25.27;;;;;;;3.32;100.00;95882.41;5116061;28;20183;-46
2022/03/17 04:38:49;;;;;;;39.40;26.10;;;;;;;3.33;100.00;95889.41;5116421;28;20210;-46
2022/03/17 04:41:15;;;;;;;38.70;25.97;;;;;;;3.37;100.00;95889.50;5116964;28;20215;-45
2022/03/17 04:43:40;;;;;;;43.50;26.00;;;;;;;3.38;100.00;95880.25;5136560;28;20207;-46
2022/03/17 04:46:09;;;;;;;42.03;26.10;;;;;;;3.40;100.00;95873.38;5119306;28;20215;-51
2022/03/17 04:48:35;;;;;;;40.70;26.23;;;;;;;3.46;100.00;95872.00;5119378;28;20190;-52
2022/03/17 04:51:00;;;;;;;42.80;27.10;;;;;;;3.44;100.00;95885.06;5119047;28;20187;-61
2022/03/17 04:53:32;;;;;;;41.60;26.20;;;;;;;3.48;100.00;95887.84;5119263;28;20270;-59
2022/03/17 04:56:12;;;;;;;39.13;25.37;;;;;;;3.48;100.00;95875.16;5119276;28;20183;-58
2022/03/17 04:58:40;;;;;;;40.30;26.13;;;;;;;3.50;100.00;95880.97;5119054;28;20191;-58
2022/03/17 05:01:06;;;;;;;37.77;26.13;;;;;;;3.46;100.00;95887.41;5135908;28;20194;-59
2022/03/17 05:03:33;;;;;;;39.37;26.67;;;;;;;3.42;100.00;95887.31;5118995;28;20571;-59
2022/03/17 05:05:59;;;;;;;41.40;27.53;;;;;;;3.41;100.00;95893.84;5118356;28;20184;-59
2022/03/17 05:08:24;;;;;;;37.83;25.50;;;;;;;3.44;100.00;95906.66;5118860;28;20190;-55
2022/03/17 05:10:52;;;;;;;41.10;26.57;;;;;;;3.43;100.00;95883.50;5136387;28;20266;-45
2022/03/17 05:13:19;;;;;;;43.07;26.53;;;;;;;3.45;100.00;95889.34;5136385;28;20582;-60
2022/03/17 05:15:46;;;;;;;40.63;27.30;;;;;;;3.38;100.00;95897.25;5118836;28;20262;-59
2022/03/17 05:18:12;;;;;;;40.83;26.93;;;;;;;3.43;100.00;95894.28;5118637;28;20278;-60
2022/03/17 05:20:40;;;;;;;40.17;27.20;;;;;;;3.38;100.00;95910.75;5118749;28;20282;-60
2022/03/17 05:23:08;;;;;;;40.30;27.13;;;;;;;3.41;100.00;95911.97;5118618;28;20198;-59
2022/03/17 05:25:34;;;;;;;40.70;27.30;;;;;;;3.41;100.00;95912.75;5118658;28;20172;-59
2022/03/17 05:28:00;;;;;;;42.70;26.80;;;;;;;3.43;100.00;95921.28;5118616;28;20191;-57
2022/03/17 05:30:26;;;;;;;43.87;27.47;;;;;;;3.43;100.00;95920.50;5118217;28;20206;-54
2022/03/17 05:32:52;;;;;;;40.63;26.90;;;;;;;3.43;100.00;95926.66;5118189;28;20211;-56
2022/03/17 05:35:18;;;;;;;39.40;26.53;;;;;;;3.45;100.00;95929.81;5118634;28;20677;-56
2022/03/17 05:37:43;;;;;;;39.57;27.97;;;;;;;3.46;100.00;95931.38;5118917;28;20183;-56
2022/03/17 05:40:15;;;;;;;45.67;28.33;;;;;;;3.48;100.00;95928.34;5117992;28;20255;-51
2022/03/17 05:42:53;;;;;;;42.63;28.17;;;;;;;3.45;100.00;95929.81;5118245;28;20191;-53
2022/03/17 05:45:18;;;;;;;42.63;28.17;;;;;;;3.48;100.00;95934.53;5118624;28;20264;-47
2022/03/17 05:47:45;;;;;;;40.77;27.43;;;;;;;3.48;100.00;95939.16;5118799;28;20187;-46
2022/03/17 05:50:13;;;;;;;39.90;27.50;;;;;;;3.48;100.00;95931.03;5118437;28;20191;-59
2022/03/17 05:52:42;;;;;;;43.23;27.77;;;;;;;3.48;100.00;95949.94;5117775;28;20242;-57
2022/03/17 05:55:09;;;;;;;42.00;28.07;;;;;;;3.53;100.00;95948.91;5135544;28;20229;-58
2022/03/17 05:57:36;;;;;;;41.80;27.60;;;;;;;3.57;100.00;95947.09;5117993;28;20187;-59
2022/03/17 06:00:04;;;;;;;42.33;28.50;;;;;;;3.60;100.00;95951.81;5117233;28;20195;-58
2022/03/17 06:02:30;;;;;;;57.07;35.97;;;;;;;3.63;100.00;95959.19;5117945;28;20540;-56
2022/03/17 06:04:55;;;;;;;47.33;30.33;;;;;;;3.72;100.00;95970.66;5117771;28;20179;-60
2022/03/17 06:07:21;;;;;;;46.20;29.90;;;;;;;3.77;100.00;95967.69;5118169;28;20198;-56
2022/03/17 06:09:46;;;;;;;46.00;30.47;;;;;;;3.82;100.00;95968.22;5117826;28;20191;-57
2022/03/17 06:12:11;;;;;;;42.70;28.87;;;;;;;3.86;100.00;95968.31;5117836;28;20223;-57
2022/03/17 06:14:37;;;;;;;43.60;29.23;;;;;;;3.92;100.00;95975.81;5117737;28;20189;-56
2022/03/17 06:17:04;;;;;;;42.43;28.93;;;;;;;3.96;100.00;95965.91;5134868;28;20195;-55
2022/03/17 06:19:29;;;;;;;42.17;29.17;;;;;;;3.99;100.00;95967.91;5117746;28;20210;-56
2022/03/17 06:21:54;;;;;;;41.93;28.63;;;;;;;4.01;100.00;95975.66;5118350;28;20222;-60
2022/03/17 06:24:19;;;;;;;44.77;29.83;;;;;;;4.01;100.00;95962.16;5117763;28;20215;-57
2022/03/17 06:26:45;;;;;;;46.73;28.80;;;;;;;4.10;100.00;95971.66;5117704;28;20244;-62
2022/03/17 06:29:10;;;;;;;44.40;30.03;;;;;;;4.17;100.00;95981.88;5118473;28;20236;-62
2022/03/17 06:31:39;;;;;;;47.27;30.43;;;;;;;4.29;100.00;95981.81;5117600;28;20208;-62
2022/03/17 06:34:06;;;;;;;44.70;29.90;;;;;;;4.37;100.00;95988.94;5118079;28;20202;-61
2022/03/17 06:36:32;;;;;;;42.47;28.43;;;;;;;4.39;100.00;95984.75;5117124;28;20199;-61
2022/03/17 06:38:57;;;;;;;42.27;28.33;;;;;;;4.42;100.00;95984.06;5117653;28;20191;-61
2022/03/17 06:41:22;;;;;;;46.83;30.60;;;;;;;4.41;100.00;95987.13;5117766;28;20268;-56
2022/03/17 06:43:48;;;;;;;42.07;28.63;;;;;;;4.50;100.00;95990.41;5117287;28;20187;-55
2022/03/17 06:46:13;;;;;;;43.00;29.03;;;;;;;4.65;100.00;95995.81;5116897;28;20541;-57
2022/03/17 06:48:39;;;;;;;48.57;28.33;;;;;;;4.74;100.00;95990.25;5117093;28;20274;-55
2022/03/17 06:51:05;;;;;;;44.20;28.00;;;;;;;4.86;100.00;95992.84;5117220;28;20188;-56
2022/03/17 06:53:30;;;;;;;49.03;29.77;;;;;;;5.06;100.00;95991.75;5117144;28;20197;-56
2022/03/17 06:55:56;;;;;;;48.03;29.40;;;;;;;5.20;100.00;95995.56;5117406;28;20177;-56
2022/03/17 06:58:21;;;;;;;41.63;27.40;;;;;;;5.28;100.00;95999.97;5117666;28;20221;-57
2022/03/17 07:00:46;;;;;;;47.40;29.53;;;;;;;5.18;100.00;96005.16;5116676;28;20173;-42
2022/03/17 07:03:12;;;;;;;48.53;30.07;;;;;;;5.41;100.00;96004.13;5116995;28;20228;-60
2022/03/17 07:05:37;;;;;;;45.07;28.50;;;;;;;5.48;100.00;96004.28;5115952;28;20179;-59
2022/03/17 07:08:03;;;;;;;42.37;28.10;;;;;;;5.64;100.00;95996.88;5116803;28;20188;-58
2022/03/17 07:10:29;;;;;;;42.47;28.67;;;;;;;5.74;100.00;96006.34;5117108;28;20269;-59
2022/03/17 07:12:54;;;;;;;40.83;27.27;;;;;;;5.72;100.00;96003.22;5117338;28;20213;-59
2022/03/17 07:15:20;;;;;;;41.63;28.80;;;;;;;5.84;100.00;96013.94;5116996;28;20674;-60
2022/03/17 07:17:45;;;;;;;38.43;27.03;;;;;;;6.03;100.00;96013.94;5116707;28;20580;-60
2022/03/17 07:20:16;;;;;;;40.97;29.57;;;;;;;6.13;100.00;96022.25;5135158;28;20224;-56
2022/03/17 07:22:43;;;;;;;39.43;28.27;;;;;;;6.31;100.00;96031.50;5134005;28;20251;-53
2022/03/17 07:25:10;;;;;;;40.77;28.40;;;;;;;6.40;100.00;96028.56;5117037;28;20188;-55
2022/03/17 07:27:43;;;;;;;44.63;30.63;;;;;;;6.65;100.00;96030.56;5116580;28;20190;-54
2022/03/17 07:30:18;;;;;;;44.00;29.47;;;;;;;6.77;100.00;96040.44;5116852;28;20225;-54
2022/03/17 07:32:44;;;;;;;38.13;26.73;;;;;;;6.85;100.00;96036.72;5116623;28;20207;-51
2022/03/17 07:35:09;;;;;;;45.33;31.47;;;;;;;6.89;100.00;96040.28;5116533;28;20181;-56
2022/03/17 07:37:34;;;;;;;38.20;27.13;;;;;;;7.00;100.00;96040.44;5116631;28;20175;-53
2022/03/17 07:40:00;;;;;;;30.60;23.43;;;;;;;7.04;100.00;96036.63;5116533;28;20228;-43
2022/03/17 07:42:25;;;;;;;35.90;25.47;;;;;;;6.97;100.00;96052.00;5116397;28;20186;-43
2022/03/17 07:44:50;;;;;;;38.10;26.30;;;;;;;6.89;100.00;96041.03;5116491;28;20277;-44
2022/03/17 07:47:17;;;;;;;37.90;26.07;;;;;;;6.93;100.00;96048.47;5117417;28;20182;-45
2022/03/17 07:49:43;;;;;;;43.87;30.97;;;;;;;7.03;100.00;96037.75;5116603;28;20281;-49
2022/03/17 07:52:08;;;;;;;39.10;28.33;;;;;;;6.95;100.00;96044.22;5116916;28;20249;-48
2022/03/17 07:54:34;;;;;;;40.07;27.40;;;;;;;7.14;100.00;96052.28;5116078;28;20194;-54
2022/03/17 07:57:01;;;;;;;37.03;27.10;;;;;;;7.14;100.00;96049.56;5116766;28;20197;-45
2022/03/17 07:59:28;;;;;;;37.50;26.73;;;;;;;7.18;100.00;96060.50;5116301;28;20187;-43
2022/03/17 08:01:53;;;;;;;41.30;27.43;;;;;;;7.31;100.00;96062.66;5133250;27;20210;-43
2022/03/17 08:04:18;;;;;;;40.30;27.50;;;;;;;7.43;100.00;96057.00;5116600;28;20250;-43
2022/03/17 08:06:44;;;;;;;35.20;26.60;;;;;;;7.63;100.00;96052.22;5116558;28;20179;-43
2022/03/17 08:09:09;;;;;;;37.23;26.47;;;;;;;7.56;100.00;96066.50;5116272;28;20189;-44
2022/03/17 08:11:35;;;;;;;37.87;27.10;;;;;;;7.61;100.00;96068.91;5115972;28;20297;-44
2022/03/17 08:14:00;;;;;;;37.67;27.43;;;;;;;7.81;100.00;96070.34;5116338;28;20187;-43
2022/03/17 08:16:25;;;;;;;36.27;24.37;;;;;;;8.14;100.00;96073.09;5117391;28;20527;-59
2022/03/17 08:18:51;;;;;;;34.13;23.93;;;;;;;8.26;100.00;96072.88;5119526;28;20219;-59
2022/03/17 08:21:17;;;;;;;35.03;24.00;;;;;;;8.17;100.00;96077.81;5119555;28;20195;-58
2022/03/17 08:23:43;;;;;;;33.83;23.70;;;;;;;8.25;100.00;96071.31;5120132;28;20274;-58
2022/03/17 08:26:09;;;;;;;35.27;24.63;;;;;;;8.02;100.00;96076.06;5120211;28;20215;-57
2022/03/17 08:28:34;;;;;;;31.90;25.03;;;;;;;8.10;100.00;96075.00;5119975;28;20183;-59
2022/03/17 08:31:00;;;;;;;30.23;23.13;;;;;;;8.09;100.00;96081.56;5137845;28;20183;-46
2022/03/17 08:33:25;;;;;;;32.27;23.80;;;;;;;7.99;100.00;96082.25;5119713;28;20185;-59
2022/03/17 08:35:52;;;;;;;33.93;23.80;;;;;;;8.17;100.00;96087.91;5119492;28;20535;-59
2022/03/17 08:38:17;;;;;;;30.20;22.53;;;;;;;8.11;100.00;96089.38;5119856;28;20526;-58
2022/03/17 08:40:43;;;;;;;28.17;21.83;;;;;;;8.17;100.00;96096.06;5119443;28;20179;-59
2022/03/17 08:43:08;;;;;;;31.00;21.83;;;;;;;8.12;100.00;96096.41;5119239;28;20189;-58
2022/03/17 08:51:02;;;;;;;29.87;22.20;;;;;;;8.55;100.00;96109.34;5137858;28;20258;-46
2022/03/17 08:53:28;;;;;;;31.50;22.03;;;;;;;8.75;100.00;96097.91;5119764;28;20183;-52
2022/03/17 08:55:53;;;;;;;37.87;28.03;;;;;;;8.87;100.00;96108.53;5119096;28;20176;-55
2022/03/17 08:58:19;;;;;;;33.83;21.60;;;;;;;8.94;100.00;96116.78;5119145;28;20187;-54
2022/03/17 09:00:44;;;;;;;29.27;21.93;;;;;;;9.04;100.00;96118.81;5136692;28;20175;-51
2022/03/17 09:03:10;;;;;;;34.37;25.43;;;;;;;8.96;100.00;96119.91;5119179;28;20220;-48
2022/03/17 09:05:36;;;;;;;36.93;24.20;;;;;;;8.93;100.00;96115.19;5118945;28;20187;-54
2022/03/17 09:08:05;;;;;;;33.80;23.70;;;;;;;9.01;100.00;96108.69;5137280;28;20186;-53
2022/03/17 09:10:32;;;;;;;31.60;24.00;;;;;;;9.00;100.00;96115.28;5118775;28;20192;-44
2022/03/17 09:13:05;;;;;;;40.37;24.27;;;;;;;8.89;100.00;96108.94;5119421;28;20206;-43
2022/03/17 09:15:31;;;;;;;35.53;23.53;;;;;;;8.77;100.00;96111.94;5118862;28;20601;-44
2022/03/17 09:17:57;;;;;;;31.20;22.43;;;;;;;9.01;100.00;96111.41;5119221;28;20193;-44
2022/03/17 09:20:22;;;;;;;34.03;23.57;;;;;;;8.98;100.00;96123.06;5118677;28;20200;-42
2022/03/17 09:22:49;;;;;;;33.57;23.03;;;;;;;9.05;100.00;96128.56;5118859;28;20251;-44
2022/03/17 09:25:14;;;;;;;33.33;24.70;;;;;;;9.02;100.00;96129.31;5118837;28;20183;-45
2022/03/17 09:27:40;;;;;;;31.53;23.40;;;;;;;9.15;100.00;96122.41;5118322;28;20192;-57
2022/03/17 09:30:06;;;;;;;30.83;24.50;;;;;;;9.08;100.00;96127.03;5118912;28;20183;-44
2022/03/17 09:32:31;;;;;;;31.87;23.03;;;;;;;9.04;100.00;96132.44;5135533;28;20252;-43
2022/03/17 09:34:58;;;;;;;31.93;22.70;;;;;;;8.91;100.00;96120.25;5118376;28;20183;-44
2022/03/17 09:37:30;;;;;;;32.03;22.67;;;;;;;8.93;100.00;96119.88;5118500;28;20229;-44
2022/03/17 09:39:55;;;;;;;30.93;22.80;;;;;;;9.04;100.00;96126.97;5118510;28;20613;-44
2022/03/17 09:42:21;;;;;;;30.73;23.20;;;;;;;8.97;100.00;96121.50;5118499;28;20184;-44
2022/03/17 09:44:53;;;;;;;29.27;22.63;;;;;;;9.15;100.00;96122.41;5118520;28;20178;-60
2022/03/17 09:47:20;;;;;;;29.50;22.43;;;;;;;8.94;100.00;96121.44;5118655;28;20237;-60
2022/03/17 09:49:48;;;;;;;30.13;23.73;;;;;;;9.13;100.00;96130.19;5118045;28;20180;-59
2022/03/17 09:52:15;;;;;;;30.77;22.73;;;;;;;9.16;100.00;96132.19;5135625;28;20277;-59
2022/03/17 09:54:41;;;;;;;29.17;22.13;;;;;;;9.25;100.00;96131.88;5118705;28;20183;-59
2022/03/17 09:57:07;;;;;;;28.73;21.93;;;;;;;9.20;100.00;96135.72;5118230;28;20184;-57
2022/03/17 09:59:32;;;;;;;34.77;22.23;;;;;;;9.27;100.00;96133.06;5118165;28;20183;-59
2022/03/17 10:02:00;;;;;;;30.87;22.77;;;;;;;9.35;100.00;96139.34;5118198;28;20293;-59
2022/03/17 10:04:30;;;;;;;29.27;22.57;;;;;;;9.51;100.00;96142.59;5134969;28;20256;-51
2022/03/17 10:06:56;;;;;;;29.53;22.53;;;;;;;9.70;100.00;96143.13;5118676;28;20174;-59
2022/03/17 10:09:22;;;;;;;34.30;23.13;;;;;;;9.95;100.00;96154.97;5118232;28;20210;-54
2022/03/17 10:11:59;;;;;;;35.87;24.23;;;;;;;10.27;100.00;96154.44;5117793;28;20248;-60
2022/03/17 10:14:39;;;;;;;36.10;23.67;;;;;;;10.31;100.00;96152.50;5118265;28;20197;-60
2022/03/17 10:17:09;;;;;;;35.87;22.90;;;;;;;10.56;100.00;96156.91;5118361;28;20190;-61
2022/03/17 10:19:34;;;;;;;33.47;22.97;;;;;;;10.67;100.00;96151.50;5117916;28;20279;-59
2022/03/17 10:22:08;;;;;;;32.73;22.80;;;;;;;10.78;100.00;96146.84;5118094;28;20217;-52
2022/03/17 10:24:33;;;;;;;34.17;23.83;;;;;;;11.08;100.00;96150.03;5117974;28;20285;-47
2022/03/17 10:27:03;;;;;;;33.03;23.93;;;;;;;11.14;100.00;96148.50;5117428;28;20214;-52
2022/03/17 10:29:28;;;;;;;32.50;22.33;;;;;;;11.29;100.00;96144.63;5117525;28;20662;-49
2022/03/17 10:31:56;;;;;;;31.37;23.53;;;;;;;11.33;100.00;96145.41;5117524;28;20221;-48
2022/03/17 10:34:28;;;;;;;27.87;21.70;;;;;;;11.29;100.00;96145.38;5118150;28;20278;-53
2022/03/17 10:37:07;;;;;;;28.23;21.67;;;;;;;11.08;100.00;96147.31;5118073;28;20273;-48
2022/03/17 10:39:37;;;;;;;31.07;23.80;;;;;;;11.09;100.00;96144.19;5117472;28;20198;-54
2022/03/17 10:42:10;;;;;;;28.67;22.93;;;;;;;11.13;100.00;96152.38;5117420;28;20198;-61
2022/03/17 10:44:38;;;;;;;29.00;21.20;;;;;;;11.36;100.00;96150.09;5117120;28;20293;-59
2022/03/17 10:47:04;;;;;;;29.57;21.87;;;;;;;11.48;100.00;96141.50;5117243;28;20226;-59
2022/03/17 10:49:29;;;;;;;28.87;22.43;;;;;;;11.60;100.00;96152.84;5116928;28;20199;-60
2022/03/17 10:51:56;;;;;;;29.07;21.97;;;;;;;11.73;100.00;96153.25;5117162;28;20256;-60
2022/03/17 10:54:22;;;;;;;30.13;21.87;;;;;;;11.60;100.00;96150.09;5117061;28;20187;-63
2022/03/17 10:57:05;;;;;;;33.93;23.07;;;;;;;11.50;100.00;96156.34;5135395;28;20183;-59
2022/03/17 10:59:47;;;;;;;40.50;28.80;;;;;;;11.56;100.00;96154.00;5117451;28;20194;-60
2022/03/17 11:02:16;;;;;;;32.67;22.73;;;;;;;11.50;100.00;96161.03;5117075;28;20257;-62
2022/03/17 11:04:44;;;;;;;33.40;23.50;;;;;;;11.59;100.00;96164.16;5117112;28;20201;-62
2022/03/17 11:07:14;;;;;;;31.07;23.37;;;;;;;11.65;100.00;96157.19;5117039;28;20236;-61
2022/03/17 11:09:41;;;;;;;28.80;21.97;;;;;;;11.66;100.00;96161.47;5116839;28;20183;-63
2022/03/17 11:12:07;;;;;;;34.53;22.53;;;;;;;11.71;100.00;96166.53;5116977;28;20221;-62
2022/03/17 11:14:34;;;;;;;29.20;21.40;;;;;;;11.64;100.00;96169.28;5134013;28;20187;-61
2022/03/17 11:17:03;;;;;;;30.03;22.17;;;;;;;11.48;100.00;96163.38;5116792;28;20320;-60
2022/03/17 11:19:29;;;;;;;30.40;20.57;;;;;;;11.65;100.00;96168.88;5117385;28;20191;-49
2022/03/17 11:22:09;;;;;;;27.70;20.87;;;;;;;11.77;100.00;96165.00;5116726;28;20208;-51
2022/03/17 11:24:38;;;;;;;32.27;21.97;;;;;;;11.70;100.00;96165.78;5117270;28;20187;-50
2022/03/17 11:27:11;;;;;;;29.63;21.57;;;;;;;11.28;100.00;96160.22;5116614;28;20187;-50
2022/03/17 11:29:44;;;;;;;30.50;21.27;;;;;;;11.31;100.00;96164.13;5116920;28;20193;-52